M/V Alton St. Amant — WDE7604 — position and weather

sailwx.info

Track history (hours):
 
Tides and Currents Weather Stations Pressure Air Temp Water Temp Dewpoint Dewpoint Depression Visibility Wind Speed Wind Dir Waves Ship Positions

M/V Alton St. Amant

Owner: The Barge Investment Group Five, L.L.C., Harahan, LA. More information available from US FCC via Universal Licensing System and Coast Guard Vessel Documentation Center.

Last reported at 2018-Jan-09 03:09 UTC. Time now 2018-Jan-18 06:20 UTC.
Position N 29°34' W 090°28'.
Warning: this ship's position is 9 days out of date.

Length 25 m; draft 3 m.

Type: Towing. MMSI: 367395270.

Date/timePositionNaut miles runAvg speedWind from/ knotsBaromVisibWave heightAir tempDewpointWater temp
2018-Jan-09 03:09N 29°34' W 090°28'1 5.7
2018-Jan-09 03:01N 29°34' W 090°29'3 5.5
2018-Jan-09 02:30N 29°34' W 090°33'3 5.2
2018-Jan-09 02:01N 29°35' W 090°35'2 4.4
2018-Jan-09 01:30N 29°35' W 090°38'3 5.1
2018-Jan-09 01:00N 29°36' W 090°40'1 2.7
2018-Jan-09 00:31N 29°37' W 090°42'0 0.1
2018-Jan-09 00:00N 29°37' W 090°42'0 0.1
2018-Jan-08 23:30N 29°37' W 090°42'0 0.0
2018-Jan-08 23:01N 29°37' W 090°42'0 0.0
2018-Jan-08 22:30N 29°37' W 090°42'0 0.0
2018-Jan-08 22:00N 29°37' W 090°42'0 0.0
2018-Jan-08 21:30N 29°37' W 090°42'0 0.0
2018-Jan-08 21:00N 29°37' W 090°42'0 0.0
2018-Jan-08 20:30N 29°37' W 090°42'0 0.0
2018-Jan-08 20:00N 29°37' W 090°42'0 0.0
2018-Jan-08 19:30N 29°37' W 090°42'0 0.0
2018-Jan-08 19:00N 29°37' W 090°42'0 0.0
2018-Jan-08 18:30N 29°37' W 090°42'0 0.0
2018-Jan-08 18:00N 29°37' W 090°42'0 0.0
2018-Jan-08 17:30N 29°37' W 090°42'0 0.0
2018-Jan-08 17:00N 29°37' W 090°42'0 0.0
2018-Jan-08 16:31N 29°37' W 090°42'0 0.0
2018-Jan-08 16:00N 29°37' W 090°42'0 0.0
2018-Jan-08 15:30N 29°37' W 090°42'0 0.0
2018-Jan-08 15:00N 29°37' W 090°42'0 0.0
2018-Jan-08 14:30N 29°37' W 090°42'0 0.0
2018-Jan-08 14:00N 29°37' W 090°42'0 0.0
2018-Jan-08 13:30N 29°37' W 090°42'0 0.0
2018-Jan-08 13:00N 29°37' W 090°42'0 0.0
2018-Jan-08 12:30N 29°37' W 090°42'0 0.0
2018-Jan-08 12:00N 29°37' W 090°42'0 0.0
2018-Jan-08 11:30N 29°37' W 090°42'0 0.0
2018-Jan-08 11:00N 29°37' W 090°42'0 0.0
2018-Jan-08 10:30N 29°37' W 090°42'0 0.0
2018-Jan-08 10:01N 29°37' W 090°42'0 0.0
2018-Jan-08 09:30N 29°37' W 090°42'0 0.0
2018-Jan-08 09:00N 29°37' W 090°42'0 0.0
2018-Jan-08 08:30N 29°37' W 090°42'0 0.0
2018-Jan-08 08:00N 29°37' W 090°42'0 0.0
2018-Jan-08 07:30N 29°37' W 090°42'0 0.0
2018-Jan-08 07:00N 29°37' W 090°42'0 0.0
2018-Jan-08 06:30N 29°37' W 090°42'0 0.0
2018-Jan-08 06:00N 29°37' W 090°42'0 0.0
2018-Jan-08 05:31N 29°37' W 090°42'0 0.0
2018-Jan-08 05:00N 29°37' W 090°42'0 0.0
2018-Jan-08 04:30N 29°37' W 090°42'0 0.0
2018-Jan-08 04:00N 29°37' W 090°42'0 0.0
2018-Jan-08 03:31N 29°37' W 090°42'0 0.0
2018-Jan-08 03:00N 29°37' W 090°42'0 0.0
2018-Jan-08 02:30N 29°37' W 090°42'0 0.0
2018-Jan-08 02:00N 29°37' W 090°42'0 0.0
2018-Jan-08 01:31N 29°37' W 090°42'0 0.0
2018-Jan-08 01:00N 29°37' W 090°42'0 0.0
2018-Jan-08 00:31N 29°37' W 090°42'0 0.0
2018-Jan-08 00:00N 29°37' W 090°42'0 0.0
2018-Jan-07 23:31N 29°37' W 090°42'0 0.0
2018-Jan-07 23:00N 29°37' W 090°42'0 0.0
2018-Jan-07 22:30N 29°37' W 090°42'0 0.0
2018-Jan-07 22:00N 29°37' W 090°42'0 0.0
2018-Jan-07 21:30N 29°37' W 090°42'0 0.0
2018-Jan-07 21:00N 29°37' W 090°42'0 0.1
2018-Jan-07 20:30N 29°37' W 090°42'0 0.0
2018-Jan-07 20:01N 29°37' W 090°42'1 1.1
2018-Jan-07 19:30N 29°36' W 090°41'3 6.4
2018-Jan-07 19:00N 29°35' W 090°38'3 6.1
2018-Jan-07 18:31N 29°34' W 090°35'3 6.3
2018-Jan-07 18:00N 29°34' W 090°31'  
2018-Jan-02 18:54N 29°34' W 090°30'2 4.6
2018-Jan-02 18:30N 29°34' W 090°33'3 4.3
2018-Jan-02 17:54N 29°35' W 090°35'2 4.3
2018-Jan-02 17:31N 29°35' W 090°37'2 4.4
2018-Jan-02 17:00N 29°36' W 090°39'2 4.1
2018-Jan-02 16:30N 29°37' W 090°41'1 2.6
2018-Jan-02 16:00N 29°36' W 090°43'2 3.4
2018-Jan-02 15:30N 29°34' W 090°43'2 3.8
2018-Jan-02 15:01N 29°33' W 090°45'2 4.3
2018-Jan-02 14:30N 29°32' W 090°47'3 5.3
2018-Jan-02 14:00N 29°32' W 090°50'4 5.0
2018-Jan-02 13:18N 29°33' W 090°54'63 2.8
2018-Jan-01 14:57N 29°48' W 092°04'2 4.4
2018-Jan-01 14:30N 29°48' W 092°06'2 4.4
2018-Jan-01 14:00N 29°47' W 092°09'2 4.5
2018-Jan-01 13:30N 29°47' W 092°11'1 1.9
2018-Jan-01 13:00N 29°47' W 092°12'2 1.7
2018-Jan-01 12:01N 29°48' W 092°14'0 0.0
2018-Jan-01 11:30N 29°48' W 092°14'1 1.2
2018-Jan-01 11:00N 29°48' W 092°15'0 0.0
2018-Jan-01 10:30N 29°48' W 092°15'0 0.7
2018-Jan-01 10:01N 29°48' W 092°15'1 3.0
2018-Jan-01 09:30N 29°49' W 092°17'2 2.0
2018-Jan-01 08:30N 29°50' W 092°18'2 3.8
2018-Jan-01 07:57N 29°51' W 092°21'44 4.0
2017-Dec-31 21:00N 29°57' W 093°10'2 4.2
2017-Dec-31 20:30N 29°59' W 093°12'2 4.0
2017-Dec-31 20:00N 30°00' W 093°14'2 3.4
2017-Dec-31 19:30N 30°02' W 093°15'2 3.4
2017-Dec-31 19:00N 30°03' W 093°16'2 3.2
2017-Dec-31 18:30N 30°05' W 093°17'1 2.4
2017-Dec-31 18:01N 30°05' W 093°18'1 2.2
2017-Dec-31 17:31N 30°06' W 093°19'1 2.0
2017-Dec-31 17:01N 30°05' W 093°19'2 3.7
2017-Dec-31 16:31N 30°04' W 093°21'2 3.7
2017-Dec-31 16:01N 30°04' W 093°23'2 4.9
2017-Dec-31 15:30N 30°04' W 093°26'2 4.7
2017-Dec-31 15:00N 30°04' W 093°28'2 4.6
2017-Dec-31 14:31N 30°04' W 093°31'2 4.6
2017-Dec-31 14:00N 30°04' W 093°34'2 4.5
2017-Dec-31 13:30N 30°04' W 093°36'2 3.9
2017-Dec-31 13:00N 30°04' W 093°39'  
Track history (hours):
 
Tides and Currents Weather Stations Pressure Air Temp Water Temp Dewpoint Dewpoint Depression Visibility Wind Speed Wind Dir Waves Ship Positions

M/V Alton St. Amant

Owner: The Barge Investment Group Five, L.L.C., Harahan, LA. More information available from US FCC via Universal Licensing System and Coast Guard Vessel Documentation Center.

Last reported at 2018-Jan-09 03:09 UTC. Time now 2018-Jan-18 06:20 UTC.
Position N 29°34' W 090°28'.
Warning: this ship's position is 9 days out of date.

Length 25 m; draft 3 m.

Type: Towing. MMSI: 367395270.

Date/timePositionNaut miles runAvg speedWind from/ knotsBaromVisibWave heightAir tempDewpointWater temp
2018-Jan-09 03:09N 29°34' W 090°28'1 5.7
2018-Jan-09 03:01N 29°34' W 090°29'3 5.5
2018-Jan-09 02:30N 29°34' W 090°33'3 5.2
2018-Jan-09 02:01N 29°35' W 090°35'2 4.4
2018-Jan-09 01:30N 29°35' W 090°38'3 5.1
2018-Jan-09 01:00N 29°36' W 090°40'1 2.7
2018-Jan-09 00:31N 29°37' W 090°42'0 0.1
2018-Jan-09 00:00N 29°37' W 090°42'0 0.1
2018-Jan-08 23:30N 29°37' W 090°42'0 0.0
2018-Jan-08 23:01N 29°37' W 090°42'0 0.0
2018-Jan-08 22:30N 29°37' W 090°42'0 0.0
2018-Jan-08 22:00N 29°37' W 090°42'0 0.0
2018-Jan-08 21:30N 29°37' W 090°42'0 0.0
2018-Jan-08 21:00N 29°37' W 090°42'0 0.0
2018-Jan-08 20:30N 29°37' W 090°42'0 0.0
2018-Jan-08 20:00N 29°37' W 090°42'0 0.0
2018-Jan-08 19:30N 29°37' W 090°42'0 0.0
2018-Jan-08 19:00N 29°37' W 090°42'0 0.0
2018-Jan-08 18:30N 29°37' W 090°42'0 0.0
2018-Jan-08 18:00N 29°37' W 090°42'0 0.0
2018-Jan-08 17:30N 29°37' W 090°42'0 0.0
2018-Jan-08 17:00N 29°37' W 090°42'0 0.0
2018-Jan-08 16:31N 29°37' W 090°42'0 0.0
2018-Jan-08 16:00N 29°37' W 090°42'0 0.0
2018-Jan-08 15:30N 29°37' W 090°42'0 0.0
2018-Jan-08 15:00N 29°37' W 090°42'0 0.0
2018-Jan-08 14:30N 29°37' W 090°42'0 0.0
2018-Jan-08 14:00N 29°37' W 090°42'0 0.0
2018-Jan-08 13:30N 29°37' W 090°42'0 0.0
2018-Jan-08 13:00N 29°37' W 090°42'0 0.0
2018-Jan-08 12:30N 29°37' W 090°42'0 0.0
2018-Jan-08 12:00N 29°37' W 090°42'0 0.0
2018-Jan-08 11:30N 29°37' W 090°42'0 0.0
2018-Jan-08 11:00N 29°37' W 090°42'0 0.0
2018-Jan-08 10:30N 29°37' W 090°42'0 0.0
2018-Jan-08 10:01N 29°37' W 090°42'0 0.0
2018-Jan-08 09:30N 29°37' W 090°42'0 0.0
2018-Jan-08 09:00N 29°37' W 090°42'0 0.0
2018-Jan-08 08:30N 29°37' W 090°42'0 0.0
2018-Jan-08 08:00N 29°37' W 090°42'0 0.0
2018-Jan-08 07:30N 29°37' W 090°42'0 0.0
2018-Jan-08 07:00N 29°37' W 090°42'0 0.0
2018-Jan-08 06:30N 29°37' W 090°42'0 0.0
2018-Jan-08 06:00N 29°37' W 090°42'0 0.0
2018-Jan-08 05:31N 29°37' W 090°42'0 0.0
2018-Jan-08 05:00N 29°37' W 090°42'0 0.0
2018-Jan-08 04:30N 29°37' W 090°42'0 0.0
2018-Jan-08 04:00N 29°37' W 090°42'0 0.0
2018-Jan-08 03:31N 29°37' W 090°42'0 0.0
2018-Jan-08 03:00N 29°37' W 090°42'0 0.0
2018-Jan-08 02:30N 29°37' W 090°42'0 0.0
2018-Jan-08 02:00N 29°37' W 090°42'0 0.0
2018-Jan-08 01:31N 29°37' W 090°42'0 0.0
2018-Jan-08 01:00N 29°37' W 090°42'0 0.0
2018-Jan-08 00:31N 29°37' W 090°42'0 0.0
2018-Jan-08 00:00N 29°37' W 090°42'0 0.0
2018-Jan-07 23:31N 29°37' W 090°42'0 0.0
2018-Jan-07 23:00N 29°37' W 090°42'0 0.0
2018-Jan-07 22:30N 29°37' W 090°42'0 0.0
2018-Jan-07 22:00N 29°37' W 090°42'0 0.0
2018-Jan-07 21:30N 29°37' W 090°42'0 0.0
2018-Jan-07 21:00N 29°37' W 090°42'0 0.1
2018-Jan-07 20:30N 29°37' W 090°42'0 0.0
2018-Jan-07 20:01N 29°37' W 090°42'1 1.1
2018-Jan-07 19:30N 29°36' W 090°41'3 6.4
2018-Jan-07 19:00N 29°35' W 090°38'3 6.1
2018-Jan-07 18:31N 29°34' W 090°35'3 6.3
2018-Jan-07 18:00N 29°34' W 090°31'  
2018-Jan-02 18:54N 29°34' W 090°30'2 4.6
2018-Jan-02 18:30N 29°34' W 090°33'3 4.3
2018-Jan-02 17:54N 29°35' W 090°35'2 4.3
2018-Jan-02 17:31N 29°35' W 090°37'2 4.4
2018-Jan-02 17:00N 29°36' W 090°39'2 4.1
2018-Jan-02 16:30N 29°37' W 090°41'1 2.6
2018-Jan-02 16:00N 29°36' W 090°43'2 3.4
2018-Jan-02 15:30N 29°34' W 090°43'2 3.8
2018-Jan-02 15:01N 29°33' W 090°45'2 4.3
2018-Jan-02 14:30N 29°32' W 090°47'3 5.3
2018-Jan-02 14:00N 29°32' W 090°50'4 5.0
2018-Jan-02 13:18N 29°33' W 090°54'63 2.8
2018-Jan-01 14:57N 29°48' W 092°04'2 4.4
2018-Jan-01 14:30N 29°48' W 092°06'2 4.4
2018-Jan-01 14:00N 29°47' W 092°09'2 4.5
2018-Jan-01 13:30N 29°47' W 092°11'1 1.9
2018-Jan-01 13:00N 29°47' W 092°12'2 1.7
2018-Jan-01 12:01N 29°48' W 092°14'0 0.0
2018-Jan-01 11:30N 29°48' W 092°14'1 1.2
2018-Jan-01 11:00N 29°48' W 092°15'0 0.0
2018-Jan-01 10:30N 29°48' W 092°15'0 0.7
2018-Jan-01 10:01N 29°48' W 092°15'1 3.0
2018-Jan-01 09:30N 29°49' W 092°17'2 2.0
2018-Jan-01 08:30N 29°50' W 092°18'2 3.8
2018-Jan-01 07:57N 29°51' W 092°21'44 4.0
2017-Dec-31 21:00N 29°57' W 093°10'2 4.2
2017-Dec-31 20:30N 29°59' W 093°12'2 4.0
2017-Dec-31 20:00N 30°00' W 093°14'2 3.4
2017-Dec-31 19:30N 30°02' W 093°15'2 3.4
2017-Dec-31 19:00N 30°03' W 093°16'2 3.2
2017-Dec-31 18:30N 30°05' W 093°17'1 2.4
2017-Dec-31 18:01N 30°05' W 093°18'1 2.2
2017-Dec-31 17:31N 30°06' W 093°19'1 2.0
2017-Dec-31 17:01N 30°05' W 093°19'2 3.7
2017-Dec-31 16:31N 30°04' W 093°21'2 3.7
2017-Dec-31 16:01N 30°04' W 093°23'2 4.9
2017-Dec-31 15:30N 30°04' W 093°26'2 4.7
2017-Dec-31 15:00N 30°04' W 093°28'2 4.6
2017-Dec-31 14:31N 30°04' W 093°31'2 4.6
2017-Dec-31 14:00N 30°04' W 093°34'2 4.5
2017-Dec-31 13:30N 30°04' W 093°36'2 3.9
2017-Dec-31 13:00N 30°04' W 093°39'  

Dump ship's entire track history